KOBE/OBE METAR and TAF weather

Enter ICAO airport designator
Station Type Date Time Source
KOBE METAR 2019/02/17 15:35 UTC NOAA

KOBE 171535Z AUTO 17007KT 135V195 CLR 24/19 A3003 RMK AO2 PWINO


Station Type Date Time Source
KOBE Decoded METAR 2019/02/17 15:35 UTC NOAA

Okeechobee County Airport, FL, United States (KOBE) 27-15-60N 080-51-02W
Feb 17, 2019 - 10:35 AM EST / 2019.02.17 1535 UTC
Wind: from the S (170 degrees) at 8 MPH (7 KT) (direction variable):0
Sky conditions: clear
Temperature: 75 F (24 C)
Dew Point: 66 F (19 C)
Relative Humidity: 73%
Pressure (altimeter): 30.03 in. Hg (1016 hPa)
ob: KOBE 171535Z AUTO 17007KT 135V195 CLR 24/19 A3003 RMK AO2 PWINO
cycle: 15

Station Type Date Time Source
KOBE TAF UTC NOAA

Error!


Example: see airport list